Farmers, Indiana
Current Conditions -  °F | °C
As of 1:53 PM on Saturday 25 Oct 2014 (Local Time) from KBMG Reporting Station
Haze Haze  
Wind Chill: 72°   Ceiling: Unl
Heat Index: 72°   Visibility: 6mi
Dew Point: 56°   Wind: 12mph
Humidity: 57%   Direction: 240°WSW
Pressure: 29.97"   Gusts: NA
Location:  39.2107°N, 86.8508°W
Report Text: KBMG 251753Z 24010KT 6SM HZ CLR 22/13 A2997 RMK AO2 SLP146 T02220133 10222 20139 58012
Loading
Personal Weather Stations






























Interactive Weather Map
Tropical Storm Tracking
New forecast layout! Learn more

10-Day Weather Forecast

Advertisements
Track Severe Weather on mobile